createdAt,value
2023-01-13T05:03:20.937Z,98616.13
2023-01-13T05:07:23.441Z,98597.31
2023-01-13T05:11:43.863Z,98598.13
2023-01-13T05:16:18.837Z,98623.88
2023-01-13T05:20:22.742Z,98624.53
2023-01-13T05:24:42.733Z,98618.53
2023-01-13T05:28:45.211Z,98625.31
2023-01-13T05:32:47.721Z,98635.59
2023-01-13T05:36:51.531Z,98600.31
2023-01-13T05:41:11.258Z,98600.91
2023-01-13T05:45:13.817Z,98628.47
2023-01-13T05:49:16.306Z,98623.84
2023-01-13T05:53:21.159Z,98620.47
2023-01-13T05:57:23.632Z,98609.56
2023-01-13T06:01:26.165Z,98635.38
2023-01-13T06:05:28.833Z,98648.56
2023-01-13T06:09:33.600Z,98678.94
2023-01-13T06:13:36.131Z,98689.44
2023-01-13T06:17:38.720Z,98672.06
2023-01-13T06:21:41.609Z,98669.41
2023-01-13T06:25:52.883Z,98663.22
2023-01-13T06:29:56.531Z,98670.22
2023-01-13T06:34:03.604Z,98657.19
2023-01-13T06:38:11.231Z,98648.13
2023-01-13T06:42:33.937Z,98645.06
2023-01-13T06:46:36.644Z,98654.81
2023-01-13T06:50:39.292Z,98659.94
2023-01-13T06:54:41.753Z,98662.22
2023-01-13T06:58:45.540Z,98660.34
2023-01-13T07:02:48.389Z,98665.94
2023-01-13T07:06:50.903Z,98668.63
2023-01-13T07:10:54.173Z,98654.97
2023-01-13T07:15:15.723Z,98649.00
2023-01-13T07:19:23.198Z,98656.22
2023-01-13T07:23:26.590Z,98658.47
2023-01-13T07:27:29.107Z,98640.03
2023-01-13T07:31:32.931Z,98639.00
2023-01-13T07:35:35.448Z,98644.16
2023-01-13T07:39:37.915Z,98651.38
2023-01-13T07:43:40.381Z,98661.53
2023-01-13T07:47:44.199Z,98665.25
2023-01-13T07:51:46.701Z,98675.13
2023-01-13T07:55:49.634Z,98673.72
2023-01-13T07:59:52.146Z,98681.78
2023-01-13T08:03:56.066Z,98687.56
2023-01-13T08:07:58.577Z,98678.50
2023-01-13T08:12:15.042Z,98688.63
2023-01-13T08:16:17.676Z,98688.38
2023-01-13T08:20:21.680Z,98685.66
2023-01-13T08:24:24.203Z,98686.69
2023-01-13T08:28:26.912Z,98686.25
2023-01-13T08:32:29.481Z,98689.78
2023-01-13T08:36:33.299Z,98686.25
2023-01-13T08:40:36.440Z,98686.25
2023-01-13T08:44:38.916Z,98689.56
2023-01-13T08:48:41.366Z,98707.53
2023-01-13T08:52:45.191Z,98711.66
2023-01-13T08:56:48.097Z,98714.09
2023-01-13T09:00:50.666Z,98713.22
2023-01-13T09:04:53.419Z,98720.38
2023-01-13T09:08:57.275Z,98729.41
2023-01-13T09:13:14.636Z,98725.34
2023-01-13T09:17:17.266Z,98722.09
2023-01-13T09:21:21.040Z,98718.63
2023-01-13T09:25:24.865Z,98736.28
2023-01-13T09:29:27.503Z,98738.09
2023-01-13T09:33:47.413Z,98737.16
2023-01-13T09:37:49.872Z,98741.25
2023-01-13T09:42:14.563Z,98738.13
2023-01-13T09:46:53.601Z,98740.97
2023-01-13T09:51:04.147Z,98743.38
2023-01-13T09:55:12.792Z,98738.16
2023-01-13T09:59:17.059Z,98746.31
2023-01-13T10:03:23.240Z,98749.94
2023-01-13T10:07:30.458Z,98745.44
2023-01-13T10:11:54.086Z,98743.66
2023-01-13T10:16:06.697Z,98740.97
2023-01-13T10:20:19.422Z,98750.56
2023-01-13T10:24:34.611Z,98746.84
2023-01-13T10:28:37.123Z,98740.69
2023-01-13T10:32:43.877Z,98758.38
2023-01-13T10:36:58.831Z,98740.19
2023-01-13T10:41:03.231Z,98749.41
2023-01-13T10:45:07.936Z,98744.00
2023-01-13T10:49:28.267Z,98739.03
2023-01-13T10:53:31.051Z,98746.78
2023-01-13T10:57:37.503Z,98747.88
2023-01-13T11:01:43.143Z,98743.38
2023-01-13T11:05:54.823Z,98740.91
2023-01-13T11:10:12.464Z,98735.41
2023-01-13T11:14:40.396Z,98737.28
2023-01-13T11:19:02.253Z,98740.91
2023-01-13T11:23:15.422Z,98752.66
2023-01-13T11:27:23.479Z,98751.34
2023-01-13T11:31:31.576Z,98746.81
2023-01-13T11:35:38.825Z,98734.91
2023-01-13T11:39:50.236Z,98740.94
2023-01-13T11:43:56.428Z,98742.06
2023-01-13T11:48:02.186Z,98743.00
2023-01-13T11:52:10.211Z,98742.75
2023-01-13T11:56:29.219Z,98750.53
2023-01-13T12:00:41.831Z,98753.88
2023-01-13T12:04:55.263Z,98759.34
2023-01-13T12:09:23.747Z,98774.69
2023-01-13T12:13:36.006Z,98817.53
2023-01-13T12:17:47.488Z,98798.56
2023-01-13T12:22:00.126Z,98788.06
2023-01-13T12:26:07.728Z,98779.69
2023-01-13T12:30:24.670Z,98791.25
2023-01-13T12:34:37.422Z,98800.19
2023-01-13T12:38:47.277Z,98787.63
2023-01-13T12:43:14.095Z,98788.53
2023-01-13T12:47:36.826Z,98786.47
2023-01-13T12:52:13.912Z,98781.97
2023-01-13T12:56:40.087Z,98791.25
2023-01-13T13:01:13.335Z,98786.44
2023-01-13T13:05:42.577Z,98776.84
2023-01-13T13:09:50.289Z,98771.81
2023-01-13T13:13:52.829Z,98770.34
2023-01-13T13:18:24.269Z,98766.66
2023-01-13T13:22:51.135Z,98758.94
2023-01-13T13:26:53.799Z,98767.47
2023-01-13T13:31:14.298Z,98759.09
2023-01-13T13:35:34.752Z,98760.00
2023-01-13T13:40:00.703Z,98758.44
2023-01-13T13:44:26.644Z,98767.53
2023-01-13T13:48:30.893Z,98769.84
2023-01-13T13:52:39.133Z,98774.47
2023-01-13T13:56:46.051Z,98775.97
2023-01-13T14:00:49.571Z,98782.78
2023-01-13T14:04:52.000Z,98784.47
2023-01-13T14:08:54.507Z,98791.19
2023-01-13T14:13:00.596Z,98802.31
2023-01-13T14:17:05.620Z,98812.16
2023-01-13T14:21:20.676Z,98824.25
2023-01-13T14:25:31.923Z,98824.94
2023-01-13T14:29:36.171Z,98834.69
2023-01-13T14:33:42.273Z,98828.09
2023-01-13T14:37:48.895Z,98835.59
2023-01-13T14:41:52.969Z,98831.47
2023-01-13T14:45:59.505Z,98836.66
2023-01-13T14:50:05.065Z,98859.00
2023-01-13T14:54:42.883Z,98889.44
2023-01-13T14:58:45.585Z,98926.63
2023-01-13T15:03:00.474Z,98935.28
2023-01-13T15:07:03.854Z,98945.78
2023-01-13T15:11:17.422Z,98941.44
2023-01-13T15:15:23.966Z,98944.66
2023-01-13T15:19:27.911Z,98946.13
2023-01-13T15:23:30.410Z,98942.00
2023-01-13T15:27:32.934Z,98942.44
2023-01-13T15:31:35.434Z,98950.09
2023-01-13T15:35:42.196Z,98947.84
2023-01-13T15:39:44.753Z,98951.13
2023-01-13T15:44:04.618Z,98950.13
2023-01-13T15:48:07.246Z,98946.00
2023-01-13T15:52:19.971Z,98952.63
2023-01-13T15:56:25.412Z,98955.13
2023-01-13T16:00:28.362Z,98967.69
2023-01-13T16:04:30.881Z,98973.53
2023-01-13T16:08:34.897Z,98983.25
2023-01-13T16:12:38.019Z,98991.69
2023-01-13T16:16:40.719Z,98997.72
2023-01-13T16:20:43.707Z,99019.00
2023-01-13T16:24:48.238Z,99030.94
2023-01-13T16:28:52.363Z,99064.78
2023-01-13T16:32:55.186Z,99069.69
2023-01-13T16:36:57.682Z,99070.94
2023-01-13T16:41:01.631Z,99071.94
2023-01-13T16:45:08.361Z,99062.16
2023-01-13T16:49:12.696Z,99067.97
2023-01-13T16:53:15.223Z,99066.94
2023-01-13T16:57:19.143Z,99084.94
2023-01-13T17:01:25.390Z,99091.97
2023-01-13T17:05:28.010Z,99099.22
2023-01-13T17:09:31.206Z,99098.78
2023-01-13T17:13:35.028Z,99104.81
2023-01-13T17:17:37.629Z,99113.59
2023-01-13T17:21:40.115Z,99117.38
2023-01-13T17:25:43.308Z,99123.94
2023-01-13T17:29:47.460Z,99122.97
2023-01-13T17:33:49.985Z,99116.72
2023-01-13T17:37:52.587Z,99126.88
2023-01-13T17:41:55.875Z,99129.50
2023-01-13T17:45:59.794Z,99138.78
2023-01-13T17:50:03.996Z,99129.66
2023-01-13T17:54:06.779Z,99133.19
2023-01-13T17:58:09.244Z,99129.13
2023-01-13T18:02:14.336Z,99135.16
2023-01-13T18:06:19.086Z,99134.38
2023-01-13T18:10:21.570Z,99160.84
2023-01-13T18:14:24.460Z,99161.50
2023-01-13T18:18:28.289Z,99174.13
2023-01-13T18:22:48.265Z,99190.34
2023-01-13T18:27:08.588Z,99188.25
2023-01-13T18:31:11.144Z,99194.06
2023-01-13T18:35:15.090Z,99193.03
2023-01-13T18:39:17.931Z,99198.84
2023-01-13T18:43:20.488Z,99215.38
2023-01-13T18:47:23.037Z,99219.91
2023-01-13T18:51:26.851Z,99224.47
2023-01-13T18:55:29.424Z,99228.38
2023-01-13T18:59:33.097Z,99218.03
2023-01-13T19:03:35.600Z,99218.25
2023-01-13T19:07:39.631Z,99222.22
2023-01-13T19:11:42.381Z,99216.34
2023-01-13T19:15:44.938Z,99225.69
2023-01-13T19:19:50.768Z,99232.31
2023-01-13T19:23:55.496Z,99236.00
2023-01-13T19:27:57.997Z,99242.25
2023-01-13T19:32:00.518Z,99250.94
2023-01-13T19:36:04.626Z,99242.88
2023-01-13T19:40:10.602Z,99258.19
2023-01-13T19:44:30.943Z,99254.94
2023-01-13T19:48:33.648Z,99266.97
2023-01-13T19:52:36.205Z,99280.03
2023-01-13T19:56:40.058Z,99288.47
2023-01-13T20:00:47.017Z,99284.66
2023-01-13T20:04:49.595Z,99297.84
2023-01-13T20:08:52.100Z,99292.03
2023-01-13T20:12:55.903Z,99298.28
2023-01-13T20:16:58.506Z,99300.78
2023-01-13T20:21:03.872Z,99300.63
2023-01-13T20:25:07.309Z,99313.81
2023-01-13T20:29:11.052Z,99302.25
2023-01-13T20:33:13.663Z,99302.94
2023-01-13T20:37:16.320Z,99322.75
2023-01-13T20:41:48.096Z,99332.94
2023-01-13T20:45:51.896Z,99340.78
2023-01-13T20:49:54.758Z,99331.66
2023-01-13T20:53:57.695Z,99340.13
2023-01-13T20:58:00.180Z,99339.84
2023-01-13T21:02:05.157Z,99344.16
2023-01-13T21:06:08.137Z,99342.09
2023-01-13T21:10:12.188Z,99342.69
2023-01-13T21:14:34.178Z,99342.28
2023-01-13T21:18:55.786Z,99344.00
2023-01-13T21:22:58.342Z,99341.50
2023-01-13T21:27:00.856Z,99356.28
2023-01-13T21:31:05.170Z,99350.53
2023-01-13T21:35:10.273Z,99370.94
2023-01-13T21:39:15.330Z,99369.94
2023-01-13T21:43:35.622Z,99371.03
2023-01-13T21:47:50.267Z,99371.28
2023-01-13T21:51:54.073Z,99371.28
2023-01-13T21:55:56.666Z,99374.81
2023-01-13T21:59:59.206Z,99371.78
